Select Airport:
Chesapeake Regional Airport
Last updated: 10 minutes ago
Flight conditions: MVFR
Visibility: 7.0 statute miles
Sky Conditions:
   Broken clouds at 1800 feet
   Overcast at 2400 feet
Wind From: 40°
Wind speed: 10 knots (11.5 mph)
Wind gust: 17 knots (19.55 mph)
Temperature: 24.5°C (76.1°F)
Dew Point: 19.7°C (67.46°F)
Altimiter setting: 29.99 in-hg
WX phone: 1-757-204-4290
WX freq: 123.675 MHz
Runway 5
   Crosswind component: 2.34 knots (2.7 mph)
   Headwind component: 13.29 knots (15.29 mph)
KCPK 251635Z AUTO 04010G17KT 7SM BKN018 OVC024 25/20 A2999 RMK AO2 T02450197
FOR REFERENCE USE ONLY, DATA MAY NOT BE CURRENT.
ALWAYS CHECK FOR UP TO DATE INFORMATION.